sensor_id;sensor_type;location;lat;lon;timestamp;temperature;humidity
36790;DHT22;22740;52.182;8.780;2023-12-20T00:00:57;6.60;99.90
36790;DHT22;22740;52.182;8.780;2023-12-20T00:06:58;6.60;99.90
36790;DHT22;22740;52.182;8.780;2023-12-20T00:13:00;6.50;99.90
36790;DHT22;22740;52.182;8.780;2023-12-20T00:19:02;6.50;99.90
36790;DHT22;22740;52.182;8.780;2023-12-20T00:25:05;6.50;99.90
36790;DHT22;22740;52.182;8.780;2023-12-20T00:31:07;6.50;99.90
36790;DHT22;22740;52.182;8.780;2023-12-20T00:37:09;6.50;99.90
36790;DHT22;22740;52.182;8.780;2023-12-20T00:43:10;6.40;99.90
36790;DHT22;22740;52.182;8.780;2023-12-20T00:49:12;6.40;99.90
36790;DHT22;22740;52.182;8.780;2023-12-20T00:55:14;6.40;99.90
36790;DHT22;22740;52.182;8.780;2023-12-20T01:01:16;6.40;99.90
36790;DHT22;22740;52.182;8.780;2023-12-20T01:07:19;6.50;99.90
36790;DHT22;22740;52.182;8.780;2023-12-20T01:13:20;6.40;99.90
36790;DHT22;22740;52.182;8.780;2023-12-20T01:19:22;6.40;99.90
36790;DHT22;22740;52.182;8.780;2023-12-20T01:25:26;6.40;99.90
36790;DHT22;22740;52.182;8.780;2023-12-20T01:31:29;6.30;99.90
36790;DHT22;22740;52.182;8.780;2023-12-20T01:37:31;6.20;99.90
36790;DHT22;22740;52.182;8.780;2023-12-20T01:43:33;6.30;99.90
36790;DHT22;22740;52.182;8.780;2023-12-20T01:49:51;6.40;99.90
36790;DHT22;22740;52.182;8.780;2023-12-20T01:55:55;6.20;99.90
36790;DHT22;22740;52.182;8.780;2023-12-20T02:01:57;6.10;99.90
36790;DHT22;22740;52.182;8.780;2023-12-20T02:08:00;6.10;99.90
36790;DHT22;22740;52.182;8.780;2023-12-20T02:14:02;6.20;99.90
36790;DHT22;22740;52.182;8.780;2023-12-20T02:20:05;6.00;99.90
36790;DHT22;22740;52.182;8.780;2023-12-20T02:26:07;5.90;99.90
36790;DHT22;22740;52.182;8.780;2023-12-20T02:32:09;5.90;99.90
36790;DHT22;22740;52.182;8.780;2023-12-20T02:38:11;5.80;99.90
36790;DHT22;22740;52.182;8.780;2023-12-20T02:44:13;5.60;99.90
36790;DHT22;22740;52.182;8.780;2023-12-20T02:50:15;5.50;99.90
36790;DHT22;22740;52.182;8.780;2023-12-20T02:56:17;5.40;99.90
36790;DHT22;22740;52.182;8.780;2023-12-20T03:02:19;5.40;99.90
36790;DHT22;22740;52.182;8.780;2023-12-20T03:08:21;5.40;99.90
36790;DHT22;22740;52.182;8.780;2023-12-20T03:14:23;5.50;99.90
36790;DHT22;22740;52.182;8.780;2023-12-20T03:20:25;5.50;99.90
36790;DHT22;22740;52.182;8.780;2023-12-20T03:26:30;5.70;99.90
36790;DHT22;22740;52.182;8.780;2023-12-20T03:32:32;5.90;99.90
36790;DHT22;22740;52.182;8.780;2023-12-20T03:38:33;6.00;99.90
36790;DHT22;22740;52.182;8.780;2023-12-20T03:44:38;5.90;99.90
36790;DHT22;22740;52.182;8.780;2023-12-20T03:50:40;6.00;99.90
36790;DHT22;22740;52.182;8.780;2023-12-20T03:56:42;5.90;99.90
36790;DHT22;22740;52.182;8.780;2023-12-20T04:02:44;5.90;99.90
36790;DHT22;22740;52.182;8.780;2023-12-20T04:08:46;5.90;99.90
36790;DHT22;22740;52.182;8.780;2023-12-20T04:14:48;5.90;99.90
36790;DHT22;22740;52.182;8.780;2023-12-20T04:20:49;6.00;99.90
36790;DHT22;22740;52.182;8.780;2023-12-20T04:26:53;6.00;99.90
36790;DHT22;22740;52.182;8.780;2023-12-20T04:32:55;5.90;99.90
36790;DHT22;22740;52.182;8.780;2023-12-20T04:38:57;5.90;99.90
36790;DHT22;22740;52.182;8.780;2023-12-20T04:44:59;6.00;99.90
36790;DHT22;22740;52.182;8.780;2023-12-20T04:51:01;6.00;99.90
36790;DHT22;22740;52.182;8.780;2023-12-20T04:57:03;5.90;99.90
36790;DHT22;22740;52.182;8.780;2023-12-20T05:03:05;5.80;99.90
36790;DHT22;22740;52.182;8.780;2023-12-20T05:09:07;5.90;99.90
36790;DHT22;22740;52.182;8.780;2023-12-20T05:15:09;5.90;99.90
36790;DHT22;22740;52.182;8.780;2023-12-20T05:21:11;6.00;99.90
36790;DHT22;22740;52.182;8.780;2023-12-20T05:27:13;6.00;99.90
36790;DHT22;22740;52.182;8.780;2023-12-20T05:33:15;5.90;99.90
36790;DHT22;22740;52.182;8.780;2023-12-20T05:39:17;6.00;99.90
36790;DHT22;22740;52.182;8.780;2023-12-20T05:45:19;6.00;99.90
36790;DHT22;22740;52.182;8.780;2023-12-20T05:51:20;5.90;99.90
36790;DHT22;22740;52.182;8.780;2023-12-20T05:57:22;6.00;99.90
36790;DHT22;22740;52.182;8.780;2023-12-20T06:03:24;6.00;99.90
36790;DHT22;22740;52.182;8.780;2023-12-20T06:09:27;6.00;99.90
36790;DHT22;22740;52.182;8.780;2023-12-20T06:15:32;6.00;99.90
36790;DHT22;22740;52.182;8.780;2023-12-20T06:21:35;5.90;99.90
36790;DHT22;22740;52.182;8.780;2023-12-20T06:27:37;5.80;99.90
36790;DHT22;22740;52.182;8.780;2023-12-20T06:33:39;5.80;99.90
36790;DHT22;22740;52.182;8.780;2023-12-20T06:39:43;5.90;99.90
36790;DHT22;22740;52.182;8.780;2023-12-20T06:45:44;5.90;99.90
36790;DHT22;22740;52.182;8.780;2023-12-20T06:51:46;5.80;99.90
36790;DHT22;22740;52.182;8.780;2023-12-20T06:57:48;5.80;99.90
36790;DHT22;22740;52.182;8.780;2023-12-20T07:03:50;5.80;99.90
36790;DHT22;22740;52.182;8.780;2023-12-20T07:09:52;5.80;99.90
36790;DHT22;22740;52.182;8.780;2023-12-20T07:15:55;5.90;99.90
36790;DHT22;22740;52.182;8.780;2023-12-20T07:21:56;5.90;99.90
36790;DHT22;22740;52.182;8.780;2023-12-20T07:27:58;6.00;99.90
36790;DHT22;22740;52.182;8.780;2023-12-20T07:34:00;6.00;99.90
36790;DHT22;22740;52.182;8.780;2023-12-20T07:40:02;5.80;99.90
36790;DHT22;22740;52.182;8.780;2023-12-20T07:46:06;5.90;99.90
36790;DHT22;22740;52.182;8.780;2023-12-20T07:52:08;5.80;99.90
36790;DHT22;22740;52.182;8.780;2023-12-20T07:58:10;5.80;99.90
36790;DHT22;22740;52.182;8.780;2023-12-20T08:04:12;5.70;99.90
36790;DHT22;22740;52.182;8.780;2023-12-20T08:10:14;5.70;99.90
36790;DHT22;22740;52.182;8.780;2023-12-20T08:16:16;5.80;99.90
36790;DHT22;22740;52.182;8.780;2023-12-20T08:22:19;5.90;99.90
36790;DHT22;22740;52.182;8.780;2023-12-20T08:28:21;6.00;99.90
36790;DHT22;22740;52.182;8.780;2023-12-20T08:34:23;6.00;99.90
36790;DHT22;22740;52.182;8.780;2023-12-20T08:40:26;6.10;99.90
36790;DHT22;22740;52.182;8.780;2023-12-20T08:46:28;6.00;99.90
36790;DHT22;22740;52.182;8.780;2023-12-20T08:52:30;6.00;99.90
36790;DHT22;22740;52.182;8.780;2023-12-20T08:58:32;6.10;99.90
36790;DHT22;22740;52.182;8.780;2023-12-20T09:04:35;6.20;99.90
36790;DHT22;22740;52.182;8.780;2023-12-20T09:10:37;6.10;99.90
36790;DHT22;22740;52.182;8.780;2023-12-20T09:16:39;6.20;99.90
36790;DHT22;22740;52.182;8.780;2023-12-20T09:22:41;6.20;99.90
36790;DHT22;22740;52.182;8.780;2023-12-20T09:28:44;6.20;99.90
36790;DHT22;22740;52.182;8.780;2023-12-20T09:34:47;6.30;99.90
36790;DHT22;22740;52.182;8.780;2023-12-20T09:40:50;6.40;99.90
36790;DHT22;22740;52.182;8.780;2023-12-20T09:46:52;6.40;99.90
36790;DHT22;22740;52.182;8.780;2023-12-20T09:52:56;6.40;99.90
36790;DHT22;22740;52.182;8.780;2023-12-20T09:59:01;6.40;99.90
36790;DHT22;22740;52.182;8.780;2023-12-20T10:05:03;6.40;99.90
36790;DHT22;22740;52.182;8.780;2023-12-20T10:11:10;6.60;99.90
36790;DHT22;22740;52.182;8.780;2023-12-20T10:17:12;6.60;99.90
36790;DHT22;22740;52.182;8.780;2023-12-20T10:23:15;6.50;99.90
36790;DHT22;22740;52.182;8.780;2023-12-20T10:29:17;6.50;99.90
36790;DHT22;22740;52.182;8.780;2023-12-20T10:35:19;6.50;99.90
36790;DHT22;22740;52.182;8.780;2023-12-20T10:41:32;6.40;99.90
36790;DHT22;22740;52.182;8.780;2023-12-20T10:47:35;6.40;99.90
36790;DHT22;22740;52.182;8.780;2023-12-20T10:53:40;6.40;99.90
36790;DHT22;22740;52.182;8.780;2023-12-20T10:59:43;6.30;99.90
36790;DHT22;22740;52.182;8.780;2023-12-20T11:12:33;6.50;99.90
36790;DHT22;22740;52.182;8.780;2023-12-20T11:18:37;6.70;99.90
36790;DHT22;22740;52.182;8.780;2023-12-20T11:24:44;6.80;99.90
36790;DHT22;22740;52.182;8.780;2023-12-20T11:30:54;6.70;99.90
36790;DHT22;22740;52.182;8.780;2023-12-20T11:36:58;6.70;99.90
36790;DHT22;22740;52.182;8.780;2023-12-20T11:43:01;6.70;99.90
36790;DHT22;22740;52.182;8.780;2023-12-20T11:49:03;6.80;99.90
36790;DHT22;22740;52.182;8.780;2023-12-20T11:55:05;6.80;99.90
36790;DHT22;22740;52.182;8.780;2023-12-20T12:01:07;6.80;99.90
36790;DHT22;22740;52.182;8.780;2023-12-20T12:07:11;6.90;99.90
36790;DHT22;22740;52.182;8.780;2023-12-20T12:13:13;6.80;99.90
36790;DHT22;22740;52.182;8.780;2023-12-20T12:19:22;6.80;99.90
36790;DHT22;22740;52.182;8.780;2023-12-20T12:25:25;6.70;99.90
36790;DHT22;22740;52.182;8.780;2023-12-20T12:31:28;6.60;99.90
36790;DHT22;22740;52.182;8.780;2023-12-20T12:37:30;6.40;99.90
36790;DHT22;22740;52.182;8.780;2023-12-20T12:43:32;6.30;99.90
36790;DHT22;22740;52.182;8.780;2023-12-20T12:49:37;6.30;99.90
36790;DHT22;22740;52.182;8.780;2023-12-20T12:55:39;6.30;99.90
36790;DHT22;22740;52.182;8.780;2023-12-20T13:01:41;6.30;99.90
36790;DHT22;22740;52.182;8.780;2023-12-20T13:07:44;6.20;99.90
36790;DHT22;22740;52.182;8.780;2023-12-20T13:19:55;6.10;99.90
36790;DHT22;22740;52.182;8.780;2023-12-20T13:25:57;6.10;99.90
36790;DHT22;22740;52.182;8.780;2023-12-20T13:31:59;6.10;99.90
36790;DHT22;22740;52.182;8.780;2023-12-20T13:38:01;6.00;99.90
36790;DHT22;22740;52.182;8.780;2023-12-20T13:44:03;6.10;99.90
36790;DHT22;22740;52.182;8.780;2023-12-20T13:50:05;6.20;99.90
36790;DHT22;22740;52.182;8.780;2023-12-20T13:56:07;6.10;99.90
36790;DHT22;22740;52.182;8.780;2023-12-20T14:02:09;6.30;99.90
36790;DHT22;22740;52.182;8.780;2023-12-20T14:08:11;6.20;99.90
36790;DHT22;22740;52.182;8.780;2023-12-20T14:14:13;6.10;99.90
36790;DHT22;22740;52.182;8.780;2023-12-20T14:20:15;6.20;99.90
36790;DHT22;22740;52.182;8.780;2023-12-20T14:26:18;6.10;99.90
36790;DHT22;22740;52.182;8.780;2023-12-20T14:32:20;6.00;99.90
36790;DHT22;22740;52.182;8.780;2023-12-20T14:38:22;6.00;99.90
36790;DHT22;22740;52.182;8.780;2023-12-20T14:44:24;6.10;99.90
36790;DHT22;22740;52.182;8.780;2023-12-20T14:50:25;6.00;99.90
36790;DHT22;22740;52.182;8.780;2023-12-20T14:56:27;6.10;99.90
36790;DHT22;22740;52.182;8.780;2023-12-20T15:02:29;6.00;99.90
36790;DHT22;22740;52.182;8.780;2023-12-20T15:08:32;6.00;99.90
36790;DHT22;22740;52.182;8.780;2023-12-20T15:14:34;6.00;99.90
36790;DHT22;22740;52.182;8.780;2023-12-20T15:20:36;6.00;99.90
36790;DHT22;22740;52.182;8.780;2023-12-20T15:26:38;5.90;99.90
36790;DHT22;22740;52.182;8.780;2023-12-20T15:32:40;5.90;99.90
36790;DHT22;22740;52.182;8.780;2023-12-20T15:38:42;5.90;99.90
36790;DHT22;22740;52.182;8.780;2023-12-20T15:44:44;5.90;99.90
36790;DHT22;22740;52.182;8.780;2023-12-20T15:50:46;5.80;99.90
36790;DHT22;22740;52.182;8.780;2023-12-20T15:56:48;5.70;99.90
36790;DHT22;22740;52.182;8.780;2023-12-20T16:02:50;5.70;99.90
36790;DHT22;22740;52.182;8.780;2023-12-20T16:08:51;5.70;99.90
36790;DHT22;22740;52.182;8.780;2023-12-20T16:14:53;5.70;99.90
36790;DHT22;22740;52.182;8.780;2023-12-20T16:20:55;5.70;99.90
36790;DHT22;22740;52.182;8.780;2023-12-20T16:26:58;5.70;99.90
36790;DHT22;22740;52.182;8.780;2023-12-20T16:33:02;5.80;99.90
36790;DHT22;22740;52.182;8.780;2023-12-20T16:39:04;5.70;99.90
36790;DHT22;22740;52.182;8.780;2023-12-20T16:45:06;5.80;99.90
36790;DHT22;22740;52.182;8.780;2023-12-20T16:51:08;5.90;99.90
36790;DHT22;22740;52.182;8.780;2023-12-20T16:57:10;5.90;99.90
36790;DHT22;22740;52.182;8.780;2023-12-20T17:03:12;5.90;99.90
36790;DHT22;22740;52.182;8.780;2023-12-20T17:09:14;6.00;99.90
36790;DHT22;22740;52.182;8.780;2023-12-20T17:15:17;6.10;99.90
36790;DHT22;22740;52.182;8.780;2023-12-20T17:21:19;6.30;99.90
36790;DHT22;22740;52.182;8.780;2023-12-20T17:27:22;6.40;99.90
36790;DHT22;22740;52.182;8.780;2023-12-20T17:33:24;6.50;99.90
36790;DHT22;22740;52.182;8.780;2023-12-20T17:39:26;6.50;99.90
36790;DHT22;22740;52.182;8.780;2023-12-20T17:45:28;6.50;99.90
36790;DHT22;22740;52.182;8.780;2023-12-20T17:51:30;6.60;99.90
36790;DHT22;22740;52.182;8.780;2023-12-20T17:57:32;6.50;99.90
36790;DHT22;22740;52.182;8.780;2023-12-20T18:03:34;6.40;99.90
36790;DHT22;22740;52.182;8.780;2023-12-20T18:09:36;6.50;99.90
36790;DHT22;22740;52.182;8.780;2023-12-20T18:15:38;6.60;99.90
36790;DHT22;22740;52.182;8.780;2023-12-20T18:21:40;6.60;99.90
36790;DHT22;22740;52.182;8.780;2023-12-20T18:27:42;6.60;99.90
36790;DHT22;22740;52.182;8.780;2023-12-20T18:33:44;6.60;99.90
36790;DHT22;22740;52.182;8.780;2023-12-20T18:39:46;6.60;99.90
36790;DHT22;22740;52.182;8.780;2023-12-20T18:45:48;6.60;99.90
36790;DHT22;22740;52.182;8.780;2023-12-20T18:51:51;6.50;99.90
36790;DHT22;22740;52.182;8.780;2023-12-20T18:57:53;6.50;99.90
36790;DHT22;22740;52.182;8.780;2023-12-20T19:03:55;6.70;99.90
36790;DHT22;22740;52.182;8.780;2023-12-20T19:09:57;6.60;99.90
36790;DHT22;22740;52.182;8.780;2023-12-20T19:16:00;6.60;99.90
36790;DHT22;22740;52.182;8.780;2023-12-20T19:22:02;6.60;99.90
36790;DHT22;22740;52.182;8.780;2023-12-20T19:28:05;6.50;99.90
36790;DHT22;22740;52.182;8.780;2023-12-20T19:34:07;6.50;99.90
36790;DHT22;22740;52.182;8.780;2023-12-20T19:40:10;6.50;99.90
36790;DHT22;22740;52.182;8.780;2023-12-20T19:46:12;6.60;99.90
36790;DHT22;22740;52.182;8.780;2023-12-20T19:52:14;6.50;99.90
36790;DHT22;22740;52.182;8.780;2023-12-20T19:58:16;6.50;99.90
36790;DHT22;22740;52.182;8.780;2023-12-20T20:04:18;6.50;99.90
36790;DHT22;22740;52.182;8.780;2023-12-20T20:10:20;6.60;99.90
36790;DHT22;22740;52.182;8.780;2023-12-20T20:16:23;6.60;99.90
36790;DHT22;22740;52.182;8.780;2023-12-20T20:22:25;6.60;99.90
36790;DHT22;22740;52.182;8.780;2023-12-20T20:28:27;6.70;99.90
36790;DHT22;22740;52.182;8.780;2023-12-20T20:34:30;6.60;99.90
36790;DHT22;22740;52.182;8.780;2023-12-20T20:40:32;6.70;99.90
36790;DHT22;22740;52.182;8.780;2023-12-20T20:46:34;6.70;99.90
36790;DHT22;22740;52.182;8.780;2023-12-20T20:52:36;6.80;99.90
36790;DHT22;22740;52.182;8.780;2023-12-20T20:58:38;6.80;99.90
36790;DHT22;22740;52.182;8.780;2023-12-20T21:04:40;6.90;99.90
36790;DHT22;22740;52.182;8.780;2023-12-20T21:10:42;6.90;99.90
36790;DHT22;22740;52.182;8.780;2023-12-20T21:16:45;6.90;99.90
36790;DHT22;22740;52.182;8.780;2023-12-20T21:22:47;7.00;99.90
36790;DHT22;22740;52.182;8.780;2023-12-20T21:28:49;7.10;99.90
36790;DHT22;22740;52.182;8.780;2023-12-20T21:34:51;7.00;99.90
36790;DHT22;22740;52.182;8.780;2023-12-20T21:40:53;7.00;99.90
36790;DHT22;22740;52.182;8.780;2023-12-20T21:46:55;7.10;99.90
36790;DHT22;22740;52.182;8.780;2023-12-20T21:52:57;7.10;99.90
36790;DHT22;22740;52.182;8.780;2023-12-20T21:59:00;7.10;99.90
36790;DHT22;22740;52.182;8.780;2023-12-20T22:05:02;7.10;99.90
36790;DHT22;22740;52.182;8.780;2023-12-20T22:11:04;7.10;99.90
36790;DHT22;22740;52.182;8.780;2023-12-20T22:17:06;7.20;99.90
36790;DHT22;22740;52.182;8.780;2023-12-20T22:23:08;7.30;99.90
36790;DHT22;22740;52.182;8.780;2023-12-20T22:29:10;7.40;99.90
36790;DHT22;22740;52.182;8.780;2023-12-20T22:35:12;7.40;99.90
36790;DHT22;22740;52.182;8.780;2023-12-20T22:41:14;7.40;99.90
36790;DHT22;22740;52.182;8.780;2023-12-20T22:47:16;7.50;99.90
36790;DHT22;22740;52.182;8.780;2023-12-20T22:53:18;7.50;99.90
36790;DHT22;22740;52.182;8.780;2023-12-20T22:59:20;7.50;99.90
36790;DHT22;22740;52.182;8.780;2023-12-20T23:05:22;7.50;99.90
36790;DHT22;22740;52.182;8.780;2023-12-20T23:11:24;7.60;99.90
36790;DHT22;22740;52.182;8.780;2023-12-20T23:17:26;7.60;99.90
36790;DHT22;22740;52.182;8.780;2023-12-20T23:23:28;7.60;99.90
36790;DHT22;22740;52.182;8.780;2023-12-20T23:29:30;7.60;99.90
36790;DHT22;22740;52.182;8.780;2023-12-20T23:35:32;7.60;99.90
36790;DHT22;22740;52.182;8.780;2023-12-20T23:41:34;7.60;99.90
36790;DHT22;22740;52.182;8.780;2023-12-20T23:47:36;7.70;99.90
36790;DHT22;22740;52.182;8.780;2023-12-20T23:53:38;7.70;99.90
36790;DHT22;22740;52.182;8.780;2023-12-20T23:59:40;7.70;99.90
